sensor_id;sensor_type;location;lat;lon;timestamp;temperature;humidity
55207;DHT22;41079;52.856;6.534;2022-09-09T00:01:08;12.90;99.90
55207;DHT22;41079;52.856;6.534;2022-09-09T00:03:57;12.90;99.90
55207;DHT22;41079;52.856;6.534;2022-09-09T00:06:30;12.80;99.90
55207;DHT22;41079;52.856;6.534;2022-09-09T00:09:21;12.80;99.90
55207;DHT22;41079;52.856;6.534;2022-09-09T00:16:55;12.80;99.90
55207;DHT22;41079;52.856;6.534;2022-09-09T00:20:13;12.70;99.90
55207;DHT22;41079;52.856;6.534;2022-09-09T00:22:20;12.70;99.90
55207;DHT22;41079;52.856;6.534;2022-09-09T00:25:16;12.70;99.90
55207;DHT22;41079;52.856;6.534;2022-09-09T00:27:47;12.60;99.90
55207;DHT22;41079;52.856;6.534;2022-09-09T00:30:20;12.60;99.90
55207;DHT22;41079;52.856;6.534;2022-09-09T00:32:49;12.60;99.90
55207;DHT22;41079;52.856;6.534;2022-09-09T00:35:23;12.60;99.90
55207;DHT22;41079;52.856;6.534;2022-09-09T00:37:52;12.50;99.90
55207;DHT22;41079;52.856;6.534;2022-09-09T00:43:30;12.40;99.90
55207;DHT22;41079;52.856;6.534;2022-09-09T00:57:32;12.30;99.90
55207;DHT22;41079;52.856;6.534;2022-09-09T01:00:21;12.40;99.90
55207;DHT22;41079;52.856;6.534;2022-09-09T01:02:59;12.40;99.90
55207;DHT22;41079;52.856;6.534;2022-09-09T01:06:00;12.50;99.90
55207;DHT22;41079;52.856;6.534;2022-09-09T01:08:41;12.50;99.90
55207;DHT22;41079;52.856;6.534;2022-09-09T01:11:21;12.50;99.90
55207;DHT22;41079;52.856;6.534;2022-09-09T01:13:53;12.60;99.90
55207;DHT22;41079;52.856;6.534;2022-09-09T01:16:21;12.60;99.90
55207;DHT22;41079;52.856;6.534;2022-09-09T01:18:49;12.70;99.90
55207;DHT22;41079;52.856;6.534;2022-09-09T01:21:43;12.70;99.90
55207;DHT22;41079;52.856;6.534;2022-09-09T01:24:33;12.80;99.90
55207;DHT22;41079;52.856;6.534;2022-09-09T01:27:02;12.90;99.90
55207;DHT22;41079;52.856;6.534;2022-09-09T01:29:29;13.10;99.90
55207;DHT22;41079;52.856;6.534;2022-09-09T01:31:57;13.20;99.90
55207;DHT22;41079;52.856;6.534;2022-09-09T01:34:27;13.30;99.90
55207;DHT22;41079;52.856;6.534;2022-09-09T01:37:07;13.40;99.90
55207;DHT22;41079;52.856;6.534;2022-09-09T01:39:35;13.40;99.90
55207;DHT22;41079;52.856;6.534;2022-09-09T01:42:02;13.60;99.90
55207;DHT22;41079;52.856;6.534;2022-09-09T01:44:30;13.60;99.90
55207;DHT22;41079;52.856;6.534;2022-09-09T01:46:56;13.70;99.90
55207;DHT22;41079;52.856;6.534;2022-09-09T01:49:22;13.70;99.90
55207;DHT22;41079;52.856;6.534;2022-09-09T01:51:53;13.80;99.90
55207;DHT22;41079;52.856;6.534;2022-09-09T01:54:21;13.80;99.90
55207;DHT22;41079;52.856;6.534;2022-09-09T02:00:07;13.90;99.90
55207;DHT22;41079;52.856;6.534;2022-09-09T02:05:37;14.00;99.90
55207;DHT22;41079;52.856;6.534;2022-09-09T02:08:08;14.10;99.90
55207;DHT22;41079;52.856;6.534;2022-09-09T02:10:38;14.10;99.90
55207;DHT22;41079;52.856;6.534;2022-09-09T02:13:12;14.20;99.90
55207;DHT22;41079;52.856;6.534;2022-09-09T02:16:04;14.10;99.90
55207;DHT22;41079;52.856;6.534;2022-09-09T02:18:48;14.20;99.90
55207;DHT22;41079;52.856;6.534;2022-09-09T02:21:17;14.20;99.90
55207;DHT22;41079;52.856;6.534;2022-09-09T02:23:45;14.20;99.90
55207;DHT22;41079;52.856;6.534;2022-09-09T02:26:13;14.30;99.90
55207;DHT22;41079;52.856;6.534;2022-09-09T02:28:46;14.30;99.90
55207;DHT22;41079;52.856;6.534;2022-09-09T02:31:14;14.30;99.90
55207;DHT22;41079;52.856;6.534;2022-09-09T02:33:45;14.30;99.90
55207;DHT22;41079;52.856;6.534;2022-09-09T02:36:13;14.30;99.90
55207;DHT22;41079;52.856;6.534;2022-09-09T02:38:45;14.30;99.90
55207;DHT22;41079;52.856;6.534;2022-09-09T02:41:19;14.30;99.90
55207;DHT22;41079;52.856;6.534;2022-09-09T02:43:47;14.30;99.90
55207;DHT22;41079;52.856;6.534;2022-09-09T02:49:00;14.30;99.90
55207;DHT22;41079;52.856;6.534;2022-09-09T02:54:30;14.30;99.90
55207;DHT22;41079;52.856;6.534;2022-09-09T02:57:08;14.30;99.90
55207;DHT22;41079;52.856;6.534;2022-09-09T02:59:36;14.30;99.90
55207;DHT22;41079;52.856;6.534;2022-09-09T03:02:02;14.30;99.90
55207;DHT22;41079;52.856;6.534;2022-09-09T03:04:28;14.30;99.90
55207;DHT22;41079;52.856;6.534;2022-09-09T03:06:54;14.30;99.90
55207;DHT22;41079;52.856;6.534;2022-09-09T03:09:19;14.30;99.90
55207;DHT22;41079;52.856;6.534;2022-09-09T03:11:45;14.30;99.90
55207;DHT22;41079;52.856;6.534;2022-09-09T03:14:10;14.30;99.90
55207;DHT22;41079;52.856;6.534;2022-09-09T03:16:37;14.20;99.90
55207;DHT22;41079;52.856;6.534;2022-09-09T03:19:02;14.20;99.90
55207;DHT22;41079;52.856;6.534;2022-09-09T03:21:28;14.20;99.90
55207;DHT22;41079;52.856;6.534;2022-09-09T03:23:54;14.20;99.90
55207;DHT22;41079;52.856;6.534;2022-09-09T03:26:19;14.20;99.90
55207;DHT22;41079;52.856;6.534;2022-09-09T03:28:45;14.20;99.90
55207;DHT22;41079;52.856;6.534;2022-09-09T03:31:11;14.10;99.90
55207;DHT22;41079;52.856;6.534;2022-09-09T03:33:37;14.10;99.90
55207;DHT22;41079;52.856;6.534;2022-09-09T03:36:04;14.10;99.90
55207;DHT22;41079;52.856;6.534;2022-09-09T03:38:30;14.10;99.90
55207;DHT22;41079;52.856;6.534;2022-09-09T03:40:56;14.10;99.90
55207;DHT22;41079;52.856;6.534;2022-09-09T03:43:26;14.10;99.90
55207;DHT22;41079;52.856;6.534;2022-09-09T03:45:52;14.10;99.90
55207;DHT22;41079;52.856;6.534;2022-09-09T03:48:18;14.10;99.90
55207;DHT22;41079;52.856;6.534;2022-09-09T03:50:49;14.20;99.90
55207;DHT22;41079;52.856;6.534;2022-09-09T03:53:15;14.20;99.90
55207;DHT22;41079;52.856;6.534;2022-09-09T03:55:45;14.20;99.90
55207;DHT22;41079;52.856;6.534;2022-09-09T03:58:15;14.10;99.90
55207;DHT22;41079;52.856;6.534;2022-09-09T04:00:41;14.20;99.90
55207;DHT22;41079;52.856;6.534;2022-09-09T04:03:09;14.20;99.90
55207;DHT22;41079;52.856;6.534;2022-09-09T04:05:34;14.20;99.90
55207;DHT22;41079;52.856;6.534;2022-09-09T04:08:00;14.10;99.90
55207;DHT22;41079;52.856;6.534;2022-09-09T04:10:26;14.10;99.90
55207;DHT22;41079;52.856;6.534;2022-09-09T04:12:52;14.20;99.90
55207;DHT22;41079;52.856;6.534;2022-09-09T04:15:18;14.20;99.90
55207;DHT22;41079;52.856;6.534;2022-09-09T04:17:44;14.20;99.90
55207;DHT22;41079;52.856;6.534;2022-09-09T04:20:09;14.20;99.90
55207;DHT22;41079;52.856;6.534;2022-09-09T04:22:37;14.10;99.90
55207;DHT22;41079;52.856;6.534;2022-09-09T04:25:05;14.10;99.90
55207;DHT22;41079;52.856;6.534;2022-09-09T04:27:31;14.10;99.90
55207;DHT22;41079;52.856;6.534;2022-09-09T04:29:57;14.10;99.90
55207;DHT22;41079;52.856;6.534;2022-09-09T04:32:22;14.10;99.90
55207;DHT22;41079;52.856;6.534;2022-09-09T04:34:48;14.10;99.90
55207;DHT22;41079;52.856;6.534;2022-09-09T04:37:14;14.10;99.90
55207;DHT22;41079;52.856;6.534;2022-09-09T04:39:39;14.10;99.90
55207;DHT22;41079;52.856;6.534;2022-09-09T04:42:05;14.10;99.90
55207;DHT22;41079;52.856;6.534;2022-09-09T04:44:31;14.10;99.90
55207;DHT22;41079;52.856;6.534;2022-09-09T04:46:56;14.10;99.90
55207;DHT22;41079;52.856;6.534;2022-09-09T04:49:22;14.00;99.90
55207;DHT22;41079;52.856;6.534;2022-09-09T04:51:49;14.00;99.90
55207;DHT22;41079;52.856;6.534;2022-09-09T04:54:14;14.00;99.90
55207;DHT22;41079;52.856;6.534;2022-09-09T04:56:40;13.90;99.90
55207;DHT22;41079;52.856;6.534;2022-09-09T04:59:07;13.90;99.90
55207;DHT22;41079;52.856;6.534;2022-09-09T05:01:33;13.90;99.90
55207;DHT22;41079;52.856;6.534;2022-09-09T05:03:59;14.00;99.90
55207;DHT22;41079;52.856;6.534;2022-09-09T05:06:25;13.90;99.90
55207;DHT22;41079;52.856;6.534;2022-09-09T05:08:51;13.90;99.90
55207;DHT22;41079;52.856;6.534;2022-09-09T05:13:48;13.80;99.90
55207;DHT22;41079;52.856;6.534;2022-09-09T05:16:16;13.80;99.90
55207;DHT22;41079;52.856;6.534;2022-09-09T05:18:42;13.80;99.90
55207;DHT22;41079;52.856;6.534;2022-09-09T05:21:13;13.80;99.90
55207;DHT22;41079;52.856;6.534;2022-09-09T05:23:39;13.80;99.90
55207;DHT22;41079;52.856;6.534;2022-09-09T05:26:16;13.70;99.90
55207;DHT22;41079;52.856;6.534;2022-09-09T05:28:42;13.70;99.90
55207;DHT22;41079;52.856;6.534;2022-09-09T05:31:18;13.70;99.90
55207;DHT22;41079;52.856;6.534;2022-09-09T05:33:50;13.70;99.90
55207;DHT22;41079;52.856;6.534;2022-09-09T05:36:18;13.70;99.90
55207;DHT22;41079;52.856;6.534;2022-09-09T05:38:44;13.70;99.90
55207;DHT22;41079;52.856;6.534;2022-09-09T05:41:11;13.80;99.90
55207;DHT22;41079;52.856;6.534;2022-09-09T05:43:37;13.80;99.90
55207;DHT22;41079;52.856;6.534;2022-09-09T05:46:11;13.80;99.90
55207;DHT22;41079;52.856;6.534;2022-09-09T05:48:40;13.90;99.90
55207;DHT22;41079;52.856;6.534;2022-09-09T05:51:08;13.90;99.90
55207;DHT22;41079;52.856;6.534;2022-09-09T05:53:35;14.00;99.90
55207;DHT22;41079;52.856;6.534;2022-09-09T05:56:02;14.00;99.90
55207;DHT22;41079;52.856;6.534;2022-09-09T05:58:30;14.10;99.90
55207;DHT22;41079;52.856;6.534;2022-09-09T06:01:07;14.20;99.90
55207;DHT22;41079;52.856;6.534;2022-09-09T06:03:37;14.30;99.90
55207;DHT22;41079;52.856;6.534;2022-09-09T06:06:05;14.40;99.90
55207;DHT22;41079;52.856;6.534;2022-09-09T06:08:35;14.40;99.90
55207;DHT22;41079;52.856;6.534;2022-09-09T06:11:06;14.40;99.90
55207;DHT22;41079;52.856;6.534;2022-09-09T06:13:32;14.30;99.90
55207;DHT22;41079;52.856;6.534;2022-09-09T06:15:58;14.30;99.90
55207;DHT22;41079;52.856;6.534;2022-09-09T06:18:25;14.30;99.90
55207;DHT22;41079;52.856;6.534;2022-09-09T06:20:59;14.30;99.90
55207;DHT22;41079;52.856;6.534;2022-09-09T06:23:27;14.30;99.90
55207;DHT22;41079;52.856;6.534;2022-09-09T06:28:52;14.40;99.90
55207;DHT22;41079;52.856;6.534;2022-09-09T06:31:22;14.40;99.90
55207;DHT22;41079;52.856;6.534;2022-09-09T06:33:53;14.50;99.90
55207;DHT22;41079;52.856;6.534;2022-09-09T06:36:23;14.50;99.90
55207;DHT22;41079;52.856;6.534;2022-09-09T06:38:49;14.60;99.90
55207;DHT22;41079;52.856;6.534;2022-09-09T06:41:16;14.50;99.90
55207;DHT22;41079;52.856;6.534;2022-09-09T06:43:42;14.60;99.90
55207;DHT22;41079;52.856;6.534;2022-09-09T06:46:22;14.60;99.90
55207;DHT22;41079;52.856;6.534;2022-09-09T06:48:48;14.60;99.90
55207;DHT22;41079;52.856;6.534;2022-09-09T06:51:18;14.60;99.90
55207;DHT22;41079;52.856;6.534;2022-09-09T06:53:45;14.70;99.90
55207;DHT22;41079;52.856;6.534;2022-09-09T06:58:37;14.80;99.90
55207;DHT22;41079;52.856;6.534;2022-09-09T07:01:07;14.80;99.90
55207;DHT22;41079;52.856;6.534;2022-09-09T07:03:33;14.90;99.90
55207;DHT22;41079;52.856;6.534;2022-09-09T07:05:59;15.00;99.90
55207;DHT22;41079;52.856;6.534;2022-09-09T07:08:25;15.10;99.90
55207;DHT22;41079;52.856;6.534;2022-09-09T07:10:52;15.20;99.90
55207;DHT22;41079;52.856;6.534;2022-09-09T07:13:25;15.30;99.90
55207;DHT22;41079;52.856;6.534;2022-09-09T07:15:52;15.40;99.90
55207;DHT22;41079;52.856;6.534;2022-09-09T07:18:19;15.70;99.90
55207;DHT22;41079;52.856;6.534;2022-09-09T07:20:55;15.80;99.90
55207;DHT22;41079;52.856;6.534;2022-09-09T07:23:21;15.80;99.90
55207;DHT22;41079;52.856;6.534;2022-09-09T07:25:47;15.90;99.90
55207;DHT22;41079;52.856;6.534;2022-09-09T07:28:13;16.10;99.90
55207;DHT22;41079;52.856;6.534;2022-09-09T07:30:39;16.30;99.90
55207;DHT22;41079;52.856;6.534;2022-09-09T07:33:05;16.50;99.90
55207;DHT22;41079;52.856;6.534;2022-09-09T07:35:31;16.70;99.90
55207;DHT22;41079;52.856;6.534;2022-09-09T07:37:56;16.80;99.90
55207;DHT22;41079;52.856;6.534;2022-09-09T07:40:24;17.00;99.90
55207;DHT22;41079;52.856;6.534;2022-09-09T07:42:50;17.10;99.90
55207;DHT22;41079;52.856;6.534;2022-09-09T07:45:15;17.30;99.90
55207;DHT22;41079;52.856;6.534;2022-09-09T07:47:41;17.70;99.90
55207;DHT22;41079;52.856;6.534;2022-09-09T07:50:10;18.00;99.90
55207;DHT22;41079;52.856;6.534;2022-09-09T07:52:35;18.20;99.90
55207;DHT22;41079;52.856;6.534;2022-09-09T07:55:02;18.10;99.90
55207;DHT22;41079;52.856;6.534;2022-09-09T07:57:29;18.10;99.90
55207;DHT22;41079;52.856;6.534;2022-09-09T07:59:56;18.10;99.90
55207;DHT22;41079;52.856;6.534;2022-09-09T08:02:25;18.20;99.90
55207;DHT22;41079;52.856;6.534;2022-09-09T08:04:53;18.30;99.90
55207;DHT22;41079;52.856;6.534;2022-09-09T08:07:18;18.40;99.90
55207;DHT22;41079;52.856;6.534;2022-09-09T08:09:46;18.40;99.90
55207;DHT22;41079;52.856;6.534;2022-09-09T08:12:12;18.30;99.90
55207;DHT22;41079;52.856;6.534;2022-09-09T08:14:38;18.30;99.90
55207;DHT22;41079;52.856;6.534;2022-09-09T08:17:05;18.50;99.90
55207;DHT22;41079;52.856;6.534;2022-09-09T08:19:31;18.60;99.90
55207;DHT22;41079;52.856;6.534;2022-09-09T08:21:59;18.60;99.90
55207;DHT22;41079;52.856;6.534;2022-09-09T08:24:27;18.50;99.90
55207;DHT22;41079;52.856;6.534;2022-09-09T08:26:53;18.40;99.90
55207;DHT22;41079;52.856;6.534;2022-09-09T08:29:19;18.20;99.90
55207;DHT22;41079;52.856;6.534;2022-09-09T08:31:55;17.90;99.90
55207;DHT22;41079;52.856;6.534;2022-09-09T08:34:23;17.70;99.90
55207;DHT22;41079;52.856;6.534;2022-09-09T08:36:51;17.70;99.90
55207;DHT22;41079;52.856;6.534;2022-09-09T08:39:19;17.80;99.90
55207;DHT22;41079;52.856;6.534;2022-09-09T08:53:03;18.90;99.90
55207;DHT22;41079;52.856;6.534;2022-09-09T08:55:38;18.90;99.90
55207;DHT22;41079;52.856;6.534;2022-09-09T08:58:18;18.90;99.90
55207;DHT22;41079;52.856;6.534;2022-09-09T09:07:00;19.00;99.90
55207;DHT22;41079;52.856;6.534;2022-09-09T09:12:24;18.80;99.90
55207;DHT22;41079;52.856;6.534;2022-09-09T09:14:50;18.80;99.90
55207;DHT22;41079;52.856;6.534;2022-09-09T09:17:20;18.70;99.90
55207;DHT22;41079;52.856;6.534;2022-09-09T09:19:49;18.60;99.90
55207;DHT22;41079;52.856;6.534;2022-09-09T09:27:50;18.90;99.90
55207;DHT22;41079;52.856;6.534;2022-09-09T09:30:22;19.20;99.90
55207;DHT22;41079;52.856;6.534;2022-09-09T09:33:08;19.40;99.90
55207;DHT22;41079;52.856;6.534;2022-09-09T09:35:38;19.60;99.90
55207;DHT22;41079;52.856;6.534;2022-09-09T09:38:25;19.70;99.90
55207;DHT22;41079;52.856;6.534;2022-09-09T09:40:55;19.80;99.90
55207;DHT22;41079;52.856;6.534;2022-09-09T09:43:42;19.80;99.90
55207;DHT22;41079;52.856;6.534;2022-09-09T09:46:22;19.70;99.90
55207;DHT22;41079;52.856;6.534;2022-09-09T09:49:03;19.40;99.90
55207;DHT22;41079;52.856;6.534;2022-09-09T09:51:31;19.20;99.90
55207;DHT22;41079;52.856;6.534;2022-09-09T09:54:22;19.00;99.90
55207;DHT22;41079;52.856;6.534;2022-09-09T09:56:53;19.00;99.90
55207;DHT22;41079;52.856;6.534;2022-09-09T09:59:39;19.10;99.90
55207;DHT22;41079;52.856;6.534;2022-09-09T10:02:24;19.30;99.90
55207;DHT22;41079;52.856;6.534;2022-09-09T10:05:25;19.30;99.90
55207;DHT22;41079;52.856;6.534;2022-09-09T10:08:05;19.30;99.90
55207;DHT22;41079;52.856;6.534;2022-09-09T10:10:52;19.50;99.90
55207;DHT22;41079;52.856;6.534;2022-09-09T10:13:34;19.70;99.90
55207;DHT22;41079;52.856;6.534;2022-09-09T10:16:24;19.70;99.90
55207;DHT22;41079;52.856;6.534;2022-09-09T10:18:59;19.70;99.90
55207;DHT22;41079;52.856;6.534;2022-09-09T10:32:41;20.00;99.90
55207;DHT22;41079;52.856;6.534;2022-09-09T10:46:21;21.30;99.90
55207;DHT22;41079;52.856;6.534;2022-09-09T10:51:59;21.10;99.90
55207;DHT22;41079;52.856;6.534;2022-09-09T10:55:06;20.90;99.90
55207;DHT22;41079;52.856;6.534;2022-09-09T10:57:48;20.70;99.90
55207;DHT22;41079;52.856;6.534;2022-09-09T11:00:20;20.70;99.90
55207;DHT22;41079;52.856;6.534;2022-09-09T11:06:19;20.50;99.90
55207;DHT22;41079;52.856;6.534;2022-09-09T11:08:47;20.30;99.90
55207;DHT22;41079;52.856;6.534;2022-09-09T11:11:30;20.00;99.90
55207;DHT22;41079;52.856;6.534;2022-09-09T11:16:56;20.00;99.90
55207;DHT22;41079;52.856;6.534;2022-09-09T11:19:42;20.10;99.90
55207;DHT22;41079;52.856;6.534;2022-09-09T11:25:14;20.40;99.90
55207;DHT22;41079;52.856;6.534;2022-09-09T11:28:09;20.40;99.90
55207;DHT22;41079;52.856;6.534;2022-09-09T11:31:06;20.40;99.90
55207;DHT22;41079;52.856;6.534;2022-09-09T11:40:14;19.60;99.90
55207;DHT22;41079;52.856;6.534;2022-09-09T11:43:12;19.30;99.90
55207;DHT22;41079;52.856;6.534;2022-09-09T11:45:41;19.10;99.90
55207;DHT22;41079;52.856;6.534;2022-09-09T11:48:25;19.10;99.90
55207;DHT22;41079;52.856;6.534;2022-09-09T11:51:13;19.00;99.90
55207;DHT22;41079;52.856;6.534;2022-09-09T11:53:56;19.00;99.90
55207;DHT22;41079;52.856;6.534;2022-09-09T11:56:45;19.20;99.90
55207;DHT22;41079;52.856;6.534;2022-09-09T12:04:58;20.30;99.90
55207;DHT22;41079;52.856;6.534;2022-09-09T12:07:38;20.50;99.90
55207;DHT22;41079;52.856;6.534;2022-09-09T12:10:28;20.70;99.90
55207;DHT22;41079;52.856;6.534;2022-09-09T12:12:54;20.90;99.90
55207;DHT22;41079;52.856;6.534;2022-09-09T12:15:30;21.00;99.90
55207;DHT22;41079;52.856;6.534;2022-09-09T12:17:58;21.10;99.90
55207;DHT22;41079;52.856;6.534;2022-09-09T12:20:35;21.10;99.90
55207;DHT22;41079;52.856;6.534;2022-09-09T12:23:19;21.00;99.90
55207;DHT22;41079;52.856;6.534;2022-09-09T12:25:58;20.80;99.90
55207;DHT22;41079;52.856;6.534;2022-09-09T12:31:41;20.60;99.90
55207;DHT22;41079;52.856;6.534;2022-09-09T12:34:18;20.40;99.90
55207;DHT22;41079;52.856;6.534;2022-09-09T12:36:51;20.40;99.90
55207;DHT22;41079;52.856;6.534;2022-09-09T12:39:40;20.50;99.90
55207;DHT22;41079;52.856;6.534;2022-09-09T12:42:22;20.70;99.90
55207;DHT22;41079;52.856;6.534;2022-09-09T12:47:26;21.30;99.90
55207;DHT22;41079;52.856;6.534;2022-09-09T12:49:54;21.10;99.90
55207;DHT22;41079;52.856;6.534;2022-09-09T12:52:29;20.90;99.90
55207;DHT22;41079;52.856;6.534;2022-09-09T12:54:56;20.60;99.90
55207;DHT22;41079;52.856;6.534;2022-09-09T12:57:36;20.10;99.90
55207;DHT22;41079;52.856;6.534;2022-09-09T13:00:19;19.90;99.90
55207;DHT22;41079;52.856;6.534;2022-09-09T13:02:56;20.00;99.90
55207;DHT22;41079;52.856;6.534;2022-09-09T13:05:27;20.50;99.90
55207;DHT22;41079;52.856;6.534;2022-09-09T13:08:03;20.90;99.90
55207;DHT22;41079;52.856;6.534;2022-09-09T13:10:35;21.20;99.90
55207;DHT22;41079;52.856;6.534;2022-09-09T13:13:17;21.00;99.90
55207;DHT22;41079;52.856;6.534;2022-09-09T13:16:00;20.80;99.90
55207;DHT22;41079;52.856;6.534;2022-09-09T13:18:33;20.40;99.90
55207;DHT22;41079;52.856;6.534;2022-09-09T13:21:00;20.20;99.90
55207;DHT22;41079;52.856;6.534;2022-09-09T13:23:31;20.20;99.90
55207;DHT22;41079;52.856;6.534;2022-09-09T13:26:02;20.10;99.90
55207;DHT22;41079;52.856;6.534;2022-09-09T13:28:30;20.10;99.90
55207;DHT22;41079;52.856;6.534;2022-09-09T13:31:05;20.20;99.90
55207;DHT22;41079;52.856;6.534;2022-09-09T13:33:37;20.30;99.90
55207;DHT22;41079;52.856;6.534;2022-09-09T13:36:08;20.50;99.90
55207;DHT22;41079;52.856;6.534;2022-09-09T13:38:56;20.70;99.90
55207;DHT22;41079;52.856;6.534;2022-09-09T13:41:24;20.60;99.90
55207;DHT22;41079;52.856;6.534;2022-09-09T13:43:50;20.50;99.90
55207;DHT22;41079;52.856;6.534;2022-09-09T13:46:33;20.40;99.90
55207;DHT22;41079;52.856;6.534;2022-09-09T13:51:39;19.50;99.90
55207;DHT22;41079;52.856;6.534;2022-09-09T13:54:09;19.10;99.90
55207;DHT22;41079;52.856;6.534;2022-09-09T13:56:37;18.90;99.90
55207;DHT22;41079;52.856;6.534;2022-09-09T13:59:05;18.90;99.90
55207;DHT22;41079;52.856;6.534;2022-09-09T14:01:31;19.20;99.90
55207;DHT22;41079;52.856;6.534;2022-09-09T14:03:58;19.70;99.90
55207;DHT22;41079;52.856;6.534;2022-09-09T14:06:24;20.10;99.90
55207;DHT22;41079;52.856;6.534;2022-09-09T14:08:50;20.50;99.90
55207;DHT22;41079;52.856;6.534;2022-09-09T14:11:17;20.60;99.90
55207;DHT22;41079;52.856;6.534;2022-09-09T14:13:42;20.50;99.90
55207;DHT22;41079;52.856;6.534;2022-09-09T14:16:08;20.70;99.90
55207;DHT22;41079;52.856;6.534;2022-09-09T14:18:35;20.90;99.90
55207;DHT22;41079;52.856;6.534;2022-09-09T14:21:01;21.20;99.90
55207;DHT22;41079;52.856;6.534;2022-09-09T14:23:27;21.30;99.90
55207;DHT22;41079;52.856;6.534;2022-09-09T14:25:53;21.10;99.90
55207;DHT22;41079;52.856;6.534;2022-09-09T14:28:18;21.10;99.90
55207;DHT22;41079;52.856;6.534;2022-09-09T14:30:44;20.80;99.90
55207;DHT22;41079;52.856;6.534;2022-09-09T14:33:12;20.60;99.90
55207;DHT22;41079;52.856;6.534;2022-09-09T14:35:37;20.40;99.90
55207;DHT22;41079;52.856;6.534;2022-09-09T14:38:04;20.10;99.90
55207;DHT22;41079;52.856;6.534;2022-09-09T14:40:30;20.20;99.90
55207;DHT22;41079;52.856;6.534;2022-09-09T14:42:55;20.30;99.90
55207;DHT22;41079;52.856;6.534;2022-09-09T14:45:25;20.60;99.90
55207;DHT22;41079;52.856;6.534;2022-09-09T14:47:52;21.00;99.90
55207;DHT22;41079;52.856;6.534;2022-09-09T14:50:18;20.90;99.90
55207;DHT22;41079;52.856;6.534;2022-09-09T14:52:44;20.50;99.90
55207;DHT22;41079;52.856;6.534;2022-09-09T14:55:10;20.20;99.90
55207;DHT22;41079;52.856;6.534;2022-09-09T14:57:36;20.10;99.90
55207;DHT22;41079;52.856;6.534;2022-09-09T15:00:06;20.00;99.90
55207;DHT22;41079;52.856;6.534;2022-09-09T15:02:32;20.00;99.90
55207;DHT22;41079;52.856;6.534;2022-09-09T15:04:58;20.20;99.90
55207;DHT22;41079;52.856;6.534;2022-09-09T15:07:27;20.60;99.90
55207;DHT22;41079;52.856;6.534;2022-09-09T15:09:54;20.90;99.90
55207;DHT22;41079;52.856;6.534;2022-09-09T15:12:20;21.00;99.90
55207;DHT22;41079;52.856;6.534;2022-09-09T15:14:46;20.90;99.90
55207;DHT22;41079;52.856;6.534;2022-09-09T15:17:12;20.70;99.90
55207;DHT22;41079;52.856;6.534;2022-09-09T15:19:38;20.40;99.90
55207;DHT22;41079;52.856;6.534;2022-09-09T15:22:04;19.90;99.90
55207;DHT22;41079;52.856;6.534;2022-09-09T15:24:34;19.80;99.90
55207;DHT22;41079;52.856;6.534;2022-09-09T15:27:00;19.60;99.90
55207;DHT22;41079;52.856;6.534;2022-09-09T15:29:26;19.40;99.90
55207;DHT22;41079;52.856;6.534;2022-09-09T15:31:54;19.40;99.90
55207;DHT22;41079;52.856;6.534;2022-09-09T15:34:20;19.40;99.90
55207;DHT22;41079;52.856;6.534;2022-09-09T15:36:46;19.40;99.90
55207;DHT22;41079;52.856;6.534;2022-09-09T15:39:13;19.20;99.90
55207;DHT22;41079;52.856;6.534;2022-09-09T15:41:46;19.10;99.90
55207;DHT22;41079;52.856;6.534;2022-09-09T15:44:12;19.00;99.90
55207;DHT22;41079;52.856;6.534;2022-09-09T15:46:40;18.90;99.90
55207;DHT22;41079;52.856;6.534;2022-09-09T15:49:15;18.80;99.90
55207;DHT22;41079;52.856;6.534;2022-09-09T15:51:44;18.70;99.90
55207;DHT22;41079;52.856;6.534;2022-09-09T15:54:12;18.70;99.90
55207;DHT22;41079;52.856;6.534;2022-09-09T15:56:38;18.60;99.90
55207;DHT22;41079;52.856;6.534;2022-09-09T15:59:04;18.50;99.90
55207;DHT22;41079;52.856;6.534;2022-09-09T16:01:31;18.40;99.90
55207;DHT22;41079;52.856;6.534;2022-09-09T16:03:57;18.40;99.90
55207;DHT22;41079;52.856;6.534;2022-09-09T16:06:24;18.30;99.90
55207;DHT22;41079;52.856;6.534;2022-09-09T16:08:52;18.20;99.90
55207;DHT22;41079;52.856;6.534;2022-09-09T16:11:23;18.20;99.90
55207;DHT22;41079;52.856;6.534;2022-09-09T16:13:50;18.10;99.90
55207;DHT22;41079;52.856;6.534;2022-09-09T16:16:18;18.20;99.90
55207;DHT22;41079;52.856;6.534;2022-09-09T16:18:50;18.10;99.90
55207;DHT22;41079;52.856;6.534;2022-09-09T16:21:22;18.20;99.90
55207;DHT22;41079;52.856;6.534;2022-09-09T16:23:50;18.20;99.90
55207;DHT22;41079;52.856;6.534;2022-09-09T16:26:17;18.20;99.90
55207;DHT22;41079;52.856;6.534;2022-09-09T16:28:43;18.20;99.90
55207;DHT22;41079;52.856;6.534;2022-09-09T16:31:11;18.10;99.90
55207;DHT22;41079;52.856;6.534;2022-09-09T16:33:39;18.10;99.90
55207;DHT22;41079;52.856;6.534;2022-09-09T16:36:11;18.10;99.90
55207;DHT22;41079;52.856;6.534;2022-09-09T16:38:37;18.10;99.90
55207;DHT22;41079;52.856;6.534;2022-09-09T16:41:04;18.00;99.90
55207;DHT22;41079;52.856;6.534;2022-09-09T16:43:34;18.10;99.90
55207;DHT22;41079;52.856;6.534;2022-09-09T16:46:01;18.10;99.90
55207;DHT22;41079;52.856;6.534;2022-09-09T16:48:31;18.10;99.90
55207;DHT22;41079;52.856;6.534;2022-09-09T16:51:09;18.20;99.90
55207;DHT22;41079;52.856;6.534;2022-09-09T16:53:36;18.20;99.90
55207;DHT22;41079;52.856;6.534;2022-09-09T16:56:14;18.20;99.90
55207;DHT22;41079;52.856;6.534;2022-09-09T16:58:40;18.20;99.90
55207;DHT22;41079;52.856;6.534;2022-09-09T17:01:06;18.30;99.90
55207;DHT22;41079;52.856;6.534;2022-09-09T17:03:31;18.30;99.90
55207;DHT22;41079;52.856;6.534;2022-09-09T17:05:58;18.20;99.90
55207;DHT22;41079;52.856;6.534;2022-09-09T17:08:31;18.10;99.90
55207;DHT22;41079;52.856;6.534;2022-09-09T17:10:57;18.10;99.90
55207;DHT22;41079;52.856;6.534;2022-09-09T17:13:24;18.00;99.90
55207;DHT22;41079;52.856;6.534;2022-09-09T17:15:50;17.90;99.90
55207;DHT22;41079;52.856;6.534;2022-09-09T17:18:16;17.90;99.90
55207;DHT22;41079;52.856;6.534;2022-09-09T17:20:43;17.80;99.90
55207;DHT22;41079;52.856;6.534;2022-09-09T17:23:10;17.70;99.90
55207;DHT22;41079;52.856;6.534;2022-09-09T17:25:36;17.70;99.90
55207;DHT22;41079;52.856;6.534;2022-09-09T17:28:03;17.70;99.90
55207;DHT22;41079;52.856;6.534;2022-09-09T17:30:35;17.60;99.90
55207;DHT22;41079;52.856;6.534;2022-09-09T17:33:03;17.60;99.90
55207;DHT22;41079;52.856;6.534;2022-09-09T17:35:29;17.50;99.90
55207;DHT22;41079;52.856;6.534;2022-09-09T17:37:55;17.50;99.90
55207;DHT22;41079;52.856;6.534;2022-09-09T17:40:21;17.50;99.90
55207;DHT22;41079;52.856;6.534;2022-09-09T17:42:47;17.40;99.90
55207;DHT22;41079;52.856;6.534;2022-09-09T17:45:14;17.30;99.90
55207;DHT22;41079;52.856;6.534;2022-09-09T17:47:40;17.30;99.90
55207;DHT22;41079;52.856;6.534;2022-09-09T17:50:09;17.30;99.90
55207;DHT22;41079;52.856;6.534;2022-09-09T17:52:36;17.20;99.90